Time;durP1;ratioP1;P1;durP2;ratioP2;P2;SDS_P1;SDS_P2;PMS_P1;PMS_P2;Temp;Humidity;BMP_temperature;BMP_pressure;BME280_temperature;BME280_humidity;BME280_pressure;Samples;Min_cycle;Max_cycle;Signal;HPM_P1;HPM_P2
2021/04/05 00:00:21;;;;;;;19.07;14.37;;;;;;;;;;4975472;28;20451;-62
2021/04/05 00:02:48;;;;;;;17.53;15.70;;;;;;;;;;4983093;28;20473;-63
2021/04/05 00:05:17;;;;;;;17.67;14.53;;;;;;;;;;4985966;28;20451;-63
2021/04/05 00:07:44;;;;;;;20.13;15.47;;;;;;;;;;4981828;28;20458;-63
2021/04/05 00:10:12;;;;;;;17.23;15.37;;;;;;;;;;4986513;28;21046;-62
2021/04/05 00:12:38;;;;;;;19.40;16.30;;;;;;;;;;4979229;28;20466;-62
2021/04/05 00:15:06;;;;;;;20.53;16.77;;;;;;;;;;4980198;28;20451;-63
2021/04/05 00:17:34;;;;;;;22.90;15.80;;;;;;;;;;4974392;28;20574;-62
2021/04/05 00:20:00;;;;;;;17.93;15.87;;;;;;;;;;4975053;28;20542;-61
2021/04/05 00:22:27;;;;;;;19.77;17.20;;;;;;;;;;4977137;28;20544;-63
2021/04/05 00:24:54;;;;;;;19.17;17.10;;;;;;;;;;4994134;28;20803;-63
2021/04/05 00:27:20;;;;;;;19.60;16.80;;;;;;;;;;4985378;28;20532;-63
2021/04/05 00:29:47;;;;;;;19.87;17.53;;;;;;;;;;4975149;28;20538;-62
2021/04/05 00:32:13;;;;;;;20.93;18.10;;;;;;;;;;4975589;28;20489;-62
2021/04/05 00:34:41;;;;;;;20.97;17.80;;;;;;;;;;4973547;28;20457;-63
2021/04/05 00:37:08;;;;;;;22.77;18.17;;;;;;;;;;4983298;28;20483;-63
2021/04/05 00:39:34;;;;;;;20.40;18.40;;;;;;;;;;4974465;28;20551;-63
2021/04/05 00:42:01;;;;;;;23.23;19.30;;;;;;;;;;4984237;28;21072;-63
2021/04/05 00:44:29;;;;;;;24.10;20.50;;;;;;;;;;4974965;28;20564;-62
2021/04/05 00:46:56;;;;;;;21.97;19.73;;;;;;;;;;4974382;28;20483;-63
2021/04/05 00:49:23;;;;;;;21.03;18.43;;;;;;;;;;4974480;28;20456;-63
2021/04/05 00:51:50;;;;;;;25.10;20.23;;;;;;;;;;4975241;28;20491;-61
2021/04/05 00:54:17;;;;;;;23.43;20.17;;;;;;;;;;4974383;28;20455;-62
2021/04/05 00:56:43;;;;;;;22.87;20.23;;;;;;;;;;4973883;28;20578;-62
2021/04/05 00:59:10;;;;;;;24.20;21.13;;;;;;;;;;4973448;28;20533;-62
2021/04/05 01:01:37;;;;;;;25.60;19.73;;;;;;;;;;4982244;28;20557;-63
2021/04/05 01:04:03;;;;;;;24.33;21.70;;;;;;;;;;4975819;28;20513;-62
2021/04/05 01:06:31;;;;;;;23.50;20.60;;;;;;;;;;4980833;28;20947;-62
2021/04/05 01:08:58;;;;;;;20.20;18.10;;;;;;;;;;4977046;28;20463;-63
2021/04/05 01:11:26;;;;;;;25.30;18.03;;;;;;;;;;4973927;28;20472;-63
2021/04/05 01:13:53;;;;;;;24.23;21.20;;;;;;;;;;4977069;28;20454;-63
2021/04/05 01:16:20;;;;;;;26.70;23.37;;;;;;;;;;4978084;28;21025;-62
2021/04/05 01:18:47;;;;;;;23.87;21.40;;;;;;;;;;4975847;28;20452;-62
2021/04/05 01:21:13;;;;;;;30.53;23.70;;;;;;;;;;4973152;28;20562;-63
2021/04/05 01:23:41;;;;;;;23.93;21.30;;;;;;;;;;4973136;28;20479;-61
2021/04/05 01:26:07;;;;;;;26.67;21.23;;;;;;;;;;4973187;28;20535;-62
2021/04/05 01:28:34;;;;;;;25.13;22.50;;;;;;;;;;4973722;28;20543;-61
2021/04/05 01:31:02;;;;;;;24.30;21.10;;;;;;;;;;4993208;28;20481;-62
2021/04/05 01:33:30;;;;;;;28.33;22.50;;;;;;;;;;4983986;28;20483;-61
2021/04/05 01:35:57;;;;;;;25.83;23.03;;;;;;;;;;4953782;28;20559;-62
2021/04/05 01:38:25;;;;;;;24.20;21.80;;;;;;;;;;4978848;28;20527;-62
2021/04/05 01:40:53;;;;;;;13.10;11.80;;;;;;;;;;4976639;28;20482;-62
2021/04/05 01:43:20;;;;;;;24.50;19.87;;;;;;;;;;4972736;28;20529;-62
2021/04/05 01:45:47;;;;;;;23.53;21.13;;;;;;;;;;4972415;28;20530;-62
2021/04/05 01:48:14;;;;;;;24.10;21.27;;;;;;;;;;4980629;28;20567;-62
2021/04/05 01:50:41;;;;;;;25.80;23.23;;;;;;;;;;4972928;28;20452;-61
2021/04/05 01:53:08;;;;;;;25.80;23.10;;;;;;;;;;4983454;28;20444;-62
2021/04/05 01:55:35;;;;;;;22.13;19.83;;;;;;;;;;4972978;28;20436;-62
2021/04/05 01:58:03;;;;;;;23.67;19.70;;;;;;;;;;4972366;28;20522;-62
2021/04/05 02:00:31;;;;;;;24.27;21.60;;;;;;;;;;4972349;28;20451;-62
2021/04/05 02:02:58;;;;;;;22.40;20.00;;;;;;;;;;4982581;28;20894;-63
2021/04/05 02:05:25;;;;;;;22.80;18.97;;;;;;;;;;4991550;28;20534;-62
2021/04/05 02:07:52;;;;;;;23.50;21.10;;;;;;;;;;4972340;28;20819;-62
2021/04/05 02:10:20;;;;;;;23.57;20.80;;;;;;;;;;4978397;28;20469;-62
2021/04/05 02:12:47;;;;;;;22.63;20.23;;;;;;;;;;4973417;28;21176;-62
2021/04/05 02:15:16;;;;;;;24.40;20.53;;;;;;;;;;4972255;28;20486;-62
2021/04/05 02:17:44;;;;;;;22.33;19.30;;;;;;;;;;4972767;28;20479;-62
2021/04/05 02:20:12;;;;;;;21.53;19.20;;;;;;;;;;4975991;28;20451;-62
2021/04/05 02:22:39;;;;;;;21.20;18.83;;;;;;;;;;4976395;28;20514;-62
2021/04/05 02:25:07;;;;;;;25.57;20.10;;;;;;;;;;4973980;28;20458;-62
2021/04/05 02:27:34;;;;;;;23.93;17.03;;;;;;;;;;4977221;28;21014;-61
2021/04/05 02:30:01;;;;;;;27.00;18.50;;;;;;;;;;4973178;28;20578;-61
2021/04/05 02:32:28;;;;;;;27.23;20.20;;;;;;;;;;4979299;28;20475;-62
2021/04/05 02:34:56;;;;;;;25.23;18.97;;;;;;;;;;4972538;28;20555;-62
2021/04/05 02:37:23;;;;;;;28.80;20.97;;;;;;;;;;4971668;28;20534;-62
2021/04/05 02:39:50;;;;;;;23.90;19.07;;;;;;;;;;4972565;28;20456;-61
2021/04/05 02:42:17;;;;;;;20.93;18.83;;;;;;;;;;4971934;28;20948;-62
2021/04/05 02:44:44;;;;;;;24.17;20.20;;;;;;;;;;4971430;28;20542;-63
2021/04/05 02:47:11;;;;;;;26.10;20.03;;;;;;;;;;4988640;28;20482;-62
2021/04/05 02:49:39;;;;;;;27.77;20.57;;;;;;;;;;4979522;28;20475;-62
2021/04/05 02:52:07;;;;;;;21.50;18.77;;;;;;;;;;4972155;28;21062;-62
2021/04/05 02:54:34;;;;;;;22.63;19.20;;;;;;;;;;4972136;28;20459;-62
2021/04/05 02:57:01;;;;;;;23.83;18.43;;;;;;;;;;4986852;28;20482;-62
2021/04/05 02:59:28;;;;;;;22.53;18.33;;;;;;;;;;4975834;28;20546;-62
2021/04/05 03:01:55;;;;;;;28.17;19.93;;;;;;;;;;4975666;28;20569;-62
2021/04/05 03:04:22;;;;;;;27.37;19.50;;;;;;;;;;4975656;28;20458;-62
2021/04/05 03:06:50;;;;;;;28.10;18.90;;;;;;;;;;4975864;28;20502;-62
2021/04/05 03:09:17;;;;;;;24.97;17.07;;;;;;;;;;4975706;28;20500;-62
2021/04/05 03:11:44;;;;;;;23.07;18.90;;;;;;;;;;4985648;28;20474;-62
2021/04/05 03:14:11;;;;;;;21.40;17.30;;;;;;;;;;4984095;28;20455;-62
2021/04/05 03:16:39;;;;;;;24.53;19.20;;;;;;;;;;4984374;28;20482;-62
2021/04/05 03:19:06;;;;;;;24.80;19.97;;;;;;;;;;5019462;23;20506;-67
2021/04/05 03:21:33;;;;;;;24.10;16.80;;;;;;;;;;4994142;28;20500;-67
2021/04/05 03:24:01;;;;;;;23.43;17.57;;;;;;;;;;4986699;28;20865;-67
2021/04/05 03:26:28;;;;;;;25.17;20.37;;;;;;;;;;4975521;28;20452;-67
2021/04/05 03:28:54;;;;;;;29.93;22.13;;;;;;;;;;4987184;28;20488;-66
2021/04/05 03:31:22;;;;;;;18.83;16.13;;;;;;;;;;4992010;28;20512;-66
2021/04/05 03:33:51;;;;;;;29.57;22.30;;;;;;;;;;4981425;28;20455;-66
2021/04/05 03:36:20;;;;;;;28.10;23.90;;;;;;;;;;4980766;28;20486;-66
2021/04/05 03:38:46;;;;;;;30.57;24.43;;;;;;;;;;4994976;28;20470;-66
2021/04/05 03:41:17;;;;;;;29.93;22.50;;;;;;;;;;4992174;28;21032;-67
2021/04/05 03:43:48;;;;;;;28.10;25.13;;;;;;;;;;4995134;28;20439;-66
2021/04/05 03:46:17;;;;;;;29.53;26.50;;;;;;;;;;4993462;28;20453;-67
2021/04/05 03:48:46;;;;;;;28.13;25.13;;;;;;;;;;4993676;28;20690;-66
2021/04/05 03:51:14;;;;;;;25.30;22.57;;;;;;;;;;4979526;28;20482;-67
2021/04/05 03:53:43;;;;;;;30.60;24.93;;;;;;;;;;4984807;28;21034;-67
2021/04/05 03:56:12;;;;;;;29.50;24.67;;;;;;;;;;4984389;28;20450;-67
2021/04/05 03:58:40;;;;;;;31.90;24.23;;;;;;;;;;4994708;28;20482;-67
2021/04/05 04:01:07;;;;;;;31.57;25.60;;;;;;;;;;4992537;28;20569;-67
2021/04/05 04:03:43;;;;;;;27.77;24.80;;;;;;;;;;4976477;28;20460;-67
2021/04/05 04:06:11;;;;;;;32.53;28.47;;;;;;;;;;4979164;28;20454;-67
2021/04/05 04:08:42;;;;;;;32.57;29.17;;;;;;;;;;4974602;28;20479;-66
2021/04/05 04:11:09;;;;;;;34.17;30.20;;;;;;;;;;4978497;28;20485;-68
2021/04/05 04:13:39;;;;;;;34.93;29.37;;;;;;;;;;4994132;28;20458;-67
2021/04/05 04:16:09;;;;;;;30.27;26.97;;;;;;;;;;4991622;28;20454;-66
2021/04/05 04:18:36;;;;;;;30.23;26.30;;;;;;;;;;4992400;28;20489;-67
2021/04/05 04:21:03;;;;;;;20.83;18.60;;;;;;;;;;4991375;28;20455;-67
2021/04/05 04:23:31;;;;;;;14.50;12.90;;;;;;;;;;4991659;28;20534;-67
2021/04/05 04:25:58;;;;;;;8.67;7.83;;;;;;;;;;4990934;28;20533;-68
2021/04/05 04:28:24;;;;;;;6.67;6.07;;;;;;;;;;4989586;28;20474;-67
2021/04/05 04:30:55;;;;;;;6.10;5.60;;;;;;;;;;4992621;28;20501;-67
2021/04/05 04:33:26;;;;;;;3.40;3.20;;;;;;;;;;4989085;28;20465;-67
2021/04/05 04:35:52;;;;;;;2.63;2.43;;;;;;;;;;4990980;28;20443;-67
2021/04/05 04:38:21;;;;;;;2.83;2.63;;;;;;;;;;4993330;28;20524;-66
2021/04/05 04:40:48;;;;;;;2.53;2.33;;;;;;;;;;4992892;28;20830;-67
2021/04/05 04:43:14;;;;;;;2.23;2.13;;;;;;;;;;4993587;28;20558;-67
2021/04/05 04:45:42;;;;;;;2.00;1.90;;;;;;;;;;4992470;28;20454;-67
2021/04/05 04:48:09;;;;;;;2.70;2.50;;;;;;;;;;4991621;28;20474;-67
2021/04/05 04:50:37;;;;;;;3.00;2.80;;;;;;;;;;4993450;28;20458;-65
2021/04/05 04:53:04;;;;;;;2.60;2.40;;;;;;;;;;4974123;28;20982;-67
2021/04/05 04:55:31;;;;;;;2.63;2.43;;;;;;;;;;4974589;28;20559;-67
2021/04/05 04:57:58;;;;;;;2.87;2.30;;;;;;;;;;4992710;28;20494;-67
2021/04/05 05:00:25;;;;;;;2.87;2.67;;;;;;;;;;4976227;28;20563;-67
2021/04/05 05:02:52;;;;;;;3.53;3.07;;;;;;;;;;4973862;28;20510;-67
2021/04/05 05:05:21;;;;;;;4.20;3.23;;;;;;;;;;4989393;28;20837;-67
2021/04/05 05:07:49;;;;;;;3.83;3.30;;;;;;;;;;4992260;28;21016;-67
2021/04/05 05:10:16;;;;;;;3.90;3.10;;;;;;;;;;4990010;28;20463;-66
2021/04/05 05:12:43;;;;;;;6.37;2.87;;;;;;;;;;4993018;28;20459;-67
2021/04/05 05:15:11;;;;;;;5.37;3.60;;;;;;;;;;4987821;28;20555;-67
2021/04/05 05:17:39;;;;;;;6.40;3.80;;;;;;;;;;4985019;28;20498;-66
2021/04/05 05:20:06;;;;;;;5.40;3.53;;;;;;;;;;4991815;28;20449;-66
2021/04/05 05:22:33;;;;;;;5.03;3.33;;;;;;;;;;4988747;28;20468;-67
2021/04/05 05:25:01;;;;;;;6.73;3.60;;;;;;;;;;4990204;28;20550;-67
2021/04/05 05:27:29;;;;;;;5.10;3.60;;;;;;;;;;4986402;28;20466;-66
2021/04/05 05:29:56;;;;;;;7.43;3.97;;;;;;;;;;4991480;28;20950;-67
2021/04/05 05:32:23;;;;;;;4.50;3.70;;;;;;;;;;4992210;28;20485;-66
2021/04/05 05:34:50;;;;;;;4.90;3.73;;;;;;;;;;4986457;28;20530;-66
2021/04/05 05:37:21;;;;;;;6.17;4.00;;;;;;;;;;4984518;28;20490;-67
2021/04/05 05:39:47;;;;;;;6.33;3.43;;;;;;;;;;4992593;28;20890;-66
2021/04/05 05:42:18;;;;;;;4.80;3.30;;;;;;;;;;4992541;28;20612;-65
2021/04/05 05:44:47;;;;;;;5.03;3.30;;;;;;;;;;4987925;28;20590;-66
2021/04/05 05:47:19;;;;;;;6.90;3.70;;;;;;;;;;4984383;28;20451;-66
2021/04/05 05:49:48;;;;;;;5.33;3.80;;;;;;;;;;4990770;28;20447;-66
2021/04/05 05:52:24;;;;;;;5.83;3.90;;;;;;;;;;4990193;28;20450;-66
2021/04/05 05:55:02;;;;;;;5.03;3.90;;;;;;;;;;4973134;28;21052;-65
2021/04/05 05:57:35;;;;;;;6.83;4.37;;;;;;;;;;4983308;28;20490;-65
2021/04/05 06:00:05;;;;;;;8.20;3.83;;;;;;;;;;4991600;28;20443;-67
2021/04/05 06:02:36;;;;;;;5.40;3.97;;;;;;;;;;4992174;28;20462;-66
2021/04/05 06:05:09;;;;;;;8.97;4.27;;;;;;;;;;4990585;28;20509;-66
2021/04/05 06:07:42;;;;;;;7.17;3.50;;;;;;;;;;4977986;28;20489;-67
2021/04/05 06:10:14;;;;;;;5.10;3.73;;;;;;;;;;4982501;28;20465;-65
2021/04/05 06:12:45;;;;;;;14.93;4.00;;;;;;;;;;4987963;28;20459;-66
2021/04/05 06:15:15;;;;;;;9.63;3.60;;;;;;;;;;4991871;28;20545;-66
2021/04/05 06:17:50;;;;;;;5.60;3.17;;;;;;;;;;4987227;28;20498;-67
2021/04/05 06:20:19;;;;;;;9.00;3.97;;;;;;;;;;4982005;28;20450;-67
2021/04/05 06:23:16;;;;;;;11.20;3.57;;;;;;;;;;4992034;28;20454;-68
2021/04/05 06:25:49;;;;;;;7.63;2.60;;;;;;;;;;4930021;29;20977;-67
2021/04/05 06:28:22;;;;;;;8.70;2.80;;;;;;;;;;4975042;28;20909;-67
2021/04/05 06:30:53;;;;;;;8.93;2.90;;;;;;;;;;4985825;28;20447;-67
2021/04/05 06:33:28;;;;;;;4.20;2.57;;;;;;;;;;4985036;28;20466;-67
2021/04/05 06:36:16;;;;;;;3.20;2.40;;;;;;;;;;4976618;28;20984;-68
2021/04/05 06:38:46;;;;;;;5.07;2.60;;;;;;;;;;4990502;28;20829;-67
2021/04/05 06:41:23;;;;;;;5.13;3.10;;;;;;;;;;4996193;28;20546;-68
2021/04/05 06:43:58;;;;;;;4.90;2.80;;;;;;;;;;4988996;28;20454;-67
2021/04/05 06:46:44;;;;;;;2.73;2.10;;;;;;;;;;4996307;28;20449;-67
2021/04/05 06:49:35;;;;;;;3.40;2.20;;;;;;;;;;4990831;28;20529;-67
2021/04/05 06:52:07;;;;;;;2.70;1.60;;;;;;;;;;4986316;28;20457;-67
2021/04/05 06:54:48;;;;;;;3.93;1.63;;;;;;;;;;4995033;28;20842;-66
2021/04/05 06:57:17;;;;;;;2.80;1.40;;;;;;;;;;4993959;28;20833;-68
2021/04/05 06:59:55;;;;;;;3.13;1.53;;;;;;;;;;4982963;28;20464;-67
2021/04/05 07:02:35;;;;;;;2.77;1.30;;;;;;;;;;4982784;28;20955;-66
2021/04/05 07:05:07;;;;;;;2.13;1.30;;;;;;;;;;4986993;28;20795;-67
2021/04/05 07:07:39;;;;;;;2.97;1.27;;;;;;;;;;4976466;28;20896;-67
2021/04/05 07:10:08;;;;;;;3.63;1.20;;;;;;;;;;4985389;28;20542;-65
2021/04/05 07:12:42;;;;;;;2.73;1.27;;;;;;;;;;4989974;28;20541;-68
2021/04/05 07:15:14;;;;;;;2.60;1.47;;;;;;;;;;4976375;28;20443;-67
2021/04/05 07:17:46;;;;;;;4.43;1.43;;;;;;;;;;4982640;28;20482;-67
2021/04/05 07:20:15;;;;;;;2.40;1.20;;;;;;;;;;4995368;28;20454;-67
2021/04/05 07:22:52;;;;;;;2.53;1.10;;;;;;;;;;4989197;28;20535;-68
2021/04/05 07:25:23;;;;;;;2.93;1.43;;;;;;;;;;4977606;28;20862;-68
2021/04/05 07:27:57;;;;;;;3.93;1.40;;;;;;;;;;4987777;28;20467;-69
2021/04/05 07:30:28;;;;;;;3.07;1.80;;;;;;;;;;4982589;28;20465;-69
2021/04/05 07:33:03;;;;;;;3.63;1.43;;;;;;;;;;4987268;28;20453;-69
2021/04/05 07:35:34;;;;;;;3.00;1.40;;;;;;;;;;4993972;28;20454;-67
2021/04/05 07:38:03;;;;;;;2.23;1.47;;;;;;;;;;4991413;28;20489;-68
2021/04/05 07:40:39;;;;;;;2.33;1.20;;;;;;;;;;4993810;28;20982;-69
2021/04/05 07:43:06;;;;;;;2.23;1.00;;;;;;;;;;4975144;28;20493;-69
2021/04/05 07:45:37;;;;;;;4.63;1.20;;;;;;;;;;4985973;28;20458;-68
2021/04/05 07:48:09;;;;;;;2.80;1.17;;;;;;;;;;4983295;28;20494;-69
2021/04/05 07:50:39;;;;;;;3.83;1.70;;;;;;;;;;4991891;28;20458;-64
2021/04/05 07:53:10;;;;;;;7.80;1.70;;;;;;;;;;4992803;28;20450;-65
2021/04/05 07:55:37;;;;;;;6.73;1.80;;;;;;;;;;4992004;28;20509;-63
2021/04/05 07:58:10;;;;;;;3.30;1.43;;;;;;;;;;4994245;28;20490;-63
2021/04/05 08:00:42;;;;;;;3.97;1.50;;;;;;;;;;4992297;28;20535;-66
2021/04/05 08:03:16;;;;;;;4.10;1.63;;;;;;;;;;4993565;28;20550;-67
2021/04/05 08:05:57;;;;;;;6.63;1.70;;;;;;;;;;4988011;28;20446;-67
2021/04/05 08:08:30;;;;;;;4.13;1.90;;;;;;;;;;4988485;28;20965;-67
2021/04/05 08:11:01;;;;;;;4.00;1.90;;;;;;;;;;4976864;28;20448;-67
2021/04/05 08:13:37;;;;;;;7.43;2.80;;;;;;;;;;4974713;28;20436;-66
2021/04/05 08:16:15;;;;;;;3.87;1.83;;;;;;;;;;4991234;28;20529;-67
2021/04/05 08:18:45;;;;;;;4.57;2.00;;;;;;;;;;4992951;28;20487;-66
2021/04/05 08:21:12;;;;;;;4.63;1.57;;;;;;;;;;4994096;28;20454;-65
2021/04/05 08:23:46;;;;;;;5.33;2.10;;;;;;;;;;4975910;28;20517;-67
2021/04/05 08:26:22;;;;;;;2.93;1.40;;;;;;;;;;4982862;28;20803;-67
2021/04/05 08:28:53;;;;;;;2.37;1.20;;;;;;;;;;4994023;28;20474;-67
2021/04/05 08:31:35;;;;;;;2.53;1.40;;;;;;;;;;4992099;28;20447;-65
2021/04/05 08:34:13;;;;;;;2.60;1.50;;;;;;;;;;4991740;28;20450;-69
2021/04/05 08:36:49;;;;;;;2.33;1.40;;;;;;;;;;4991153;28;20477;-67
2021/04/05 08:39:20;;;;;;;3.80;1.23;;;;;;;;;;4984102;28;20486;-66
2021/04/05 08:41:49;;;;;;;2.03;1.20;;;;;;;;;;4989143;28;20962;-65
2021/04/05 08:44:22;;;;;;;1.90;1.27;;;;;;;;;;4975824;28;20472;-66
2021/04/05 08:46:51;;;;;;;1.30;0.80;;;;;;;;;;4979570;28;20467;-66
2021/04/05 08:49:20;;;;;;;1.70;0.80;;;;;;;;;;4991998;28;20585;-66
2021/04/05 08:51:49;;;;;;;1.17;0.80;;;;;;;;;;4993543;28;20483;-66
2021/04/05 08:54:19;;;;;;;2.10;0.80;;;;;;;;;;4991474;28;20550;-67
2021/04/05 08:56:49;;;;;;;1.47;0.90;;;;;;;;;;4992381;28;20486;-67
2021/04/05 08:59:21;;;;;;;1.80;1.20;;;;;;;;;;4993488;28;20528;-66
2021/04/05 09:01:49;;;;;;;1.73;0.80;;;;;;;;;;4992976;28;20439;-66
2021/04/05 09:04:22;;;;;;;1.20;0.70;;;;;;;;;;4993387;28;20546;-66
2021/04/05 09:06:52;;;;;;;2.07;1.10;;;;;;;;;;4992669;28;20471;-67
2021/04/05 09:09:19;;;;;;;1.67;0.80;;;;;;;;;;4993163;28;20475;-67
2021/04/05 09:11:46;;;;;;;1.53;0.80;;;;;;;;;;4991521;28;20561;-67
2021/04/05 09:14:15;;;;;;;1.90;0.83;;;;;;;;;;4992999;28;20450;-67
2021/04/05 09:17:08;;;;;;;2.70;0.63;;;;;;;;;;4986158;28;20478;-66
2021/04/05 09:19:50;;;;;;;4.50;1.10;;;;;;;;;;5005917;23;20558;-62
2021/04/05 09:22:44;;;;;;;1.50;1.10;;;;;;;;;;4988730;28;20545;-60
2021/04/05 09:25:17;;;;;;;2.00;1.00;;;;;;;;;;4985469;28;20895;-62
2021/04/05 09:27:55;;;;;;;2.80;2.03;;;;;;;;;;4998738;28;20447;-60
2021/04/05 09:30:33;;;;;;;2.43;1.00;;;;;;;;;;4978820;28;20566;-60
2021/04/05 09:33:15;;;;;;;2.70;1.00;;;;;;;;;;4993525;28;20909;-60
2021/04/05 09:35:51;;;;;;;1.70;1.17;;;;;;;;;;4959720;28;20932;-62
2021/04/05 09:38:27;;;;;;;2.10;1.30;;;;;;;;;;4967772;28;20495;-60
2021/04/05 09:41:00;;;;;;;2.00;1.10;;;;;;;;;;4973441;28;20550;-60
2021/04/05 09:43:45;;;;;;;2.97;1.17;;;;;;;;;;4970390;28;20514;-60
2021/04/05 09:46:23;;;;;;;2.37;1.50;;;;;;;;;;4961397;28;20813;-62
2021/04/05 09:48:53;;;;;;;3.23;1.60;;;;;;;;;;4957798;28;20496;-62
2021/04/05 09:51:38;;;;;;;2.73;1.50;;;;;;;;;;4963953;28;20874;-62
2021/04/05 09:54:13;;;;;;;2.60;1.70;;;;;;;;;;4959191;28;20480;-62
2021/04/05 09:56:45;;;;;;;5.70;1.70;;;;;;;;;;4965115;28;20464;-61
2021/04/05 09:59:14;;;;;;;5.97;1.90;;;;;;;;;;4955562;28;20492;-62
2021/04/05 10:01:41;;;;;;;3.40;1.83;;;;;;;;;;4965230;28;20603;-62
2021/04/05 10:04:09;;;;;;;5.50;1.90;;;;;;;;;;4962679;28;20459;-62
2021/04/05 10:06:36;;;;;;;7.13;1.90;;;;;;;;;;4971987;28;20467;-62
2021/04/05 10:09:03;;;;;;;3.73;1.60;;;;;;;;;;4970683;28;20475;-60
2021/04/05 10:11:32;;;;;;;4.57;1.90;;;;;;;;;;4956239;28;21074;-61
2021/04/05 10:14:00;;;;;;;3.93;1.20;;;;;;;;;;4967487;28;20977;-61
2021/04/05 10:16:27;;;;;;;7.53;1.97;;;;;;;;;;4957961;28;20482;-60
2021/04/05 10:18:54;;;;;;;5.17;1.80;;;;;;;;;;4969954;28;20574;-62
2021/04/05 10:21:22;;;;;;;7.00;2.20;;;;;;;;;;4954101;29;20448;-61
2021/04/05 10:23:50;;;;;;;5.20;1.67;;;;;;;;;;4960594;28;20475;-62
2021/04/05 10:26:17;;;;;;;3.53;1.80;;;;;;;;;;4953961;28;20462;-61
2021/04/05 10:28:44;;;;;;;5.80;1.23;;;;;;;;;;4963764;28;20474;-61
2021/04/05 10:31:17;;;;;;;4.73;2.00;;;;;;;;;;4964250;28;20539;-61
2021/04/05 10:33:45;;;;;;;5.90;1.73;;;;;;;;;;4970086;28;20566;-61
2021/04/05 10:36:13;;;;;;;5.70;2.27;;;;;;;;;;4963265;28;20469;-61
2021/04/05 10:38:40;;;;;;;4.33;1.70;;;;;;;;;;4961002;28;20594;-61
2021/04/05 10:41:08;;;;;;;3.93;1.83;;;;;;;;;;4956148;28;20483;-61
2021/04/05 10:43:37;;;;;;;5.70;1.63;;;;;;;;;;4955590;28;20555;-61
2021/04/05 10:46:07;;;;;;;3.80;1.97;;;;;;;;;;4965946;28;20471;-62
2021/04/05 10:48:40;;;;;;;5.07;1.60;;;;;;;;;;4966298;28;20618;-60
2021/04/05 10:51:09;;;;;;;2.90;1.57;;;;;;;;;;4964923;28;20481;-62
2021/04/05 10:53:36;;;;;;;5.13;1.80;;;;;;;;;;4971011;28;20451;-64
2021/04/05 10:56:05;;;;;;;6.20;2.33;;;;;;;;;;4962354;28;21043;-67
2021/04/05 10:58:36;;;;;;;7.33;2.20;;;;;;;;;;4957078;28;20867;-65
2021/04/05 11:01:06;;;;;;;5.10;2.27;;;;;;;;;;4972499;28;20480;-65
2021/04/05 11:03:32;;;;;;;4.70;2.37;;;;;;;;;;4974298;28;21034;-65
2021/04/05 11:06:02;;;;;;;4.60;2.00;;;;;;;;;;4968493;28;20498;-68
2021/04/05 11:08:29;;;;;;;5.97;2.40;;;;;;;;;;4961106;28;20563;-65
2021/04/05 11:11:01;;;;;;;3.30;1.80;;;;;;;;;;4970094;28;20476;-65
2021/04/05 11:13:28;;;;;;;3.40;1.80;;;;;;;;;;4953351;29;20503;-65
2021/04/05 11:15:54;;;;;;;4.80;2.50;;;;;;;;;;4966547;28;20471;-62
2021/04/05 11:18:22;;;;;;;5.10;2.30;;;;;;;;;;4958366;28;20579;-65
2021/04/05 11:20:50;;;;;;;3.00;2.10;;;;;;;;;;4967011;28;20463;-65
2021/04/05 11:23:19;;;;;;;4.60;2.13;;;;;;;;;;4972079;28;20471;-65
2021/04/05 11:25:47;;;;;;;4.90;2.10;;;;;;;;;;4957453;28;20527;-66
2021/04/05 11:28:18;;;;;;;3.97;2.00;;;;;;;;;;4968249;28;21026;-65
2021/04/05 11:30:47;;;;;;;3.50;1.80;;;;;;;;;;4975501;28;20970;-67
2021/04/05 11:33:16;;;;;;;4.00;1.67;;;;;;;;;;4967880;28;20543;-65
2021/04/05 11:35:44;;;;;;;4.20;2.00;;;;;;;;;;4956314;28;20531;-65
2021/04/05 11:38:12;;;;;;;7.07;2.23;;;;;;;;;;4956151;29;21093;-65
2021/04/05 11:40:42;;;;;;;5.03;2.73;;;;;;;;;;4956170;29;20482;-65
2021/04/05 11:43:14;;;;;;;5.33;2.80;;;;;;;;;;4956623;29;20456;-65
2021/04/05 11:45:41;;;;;;;3.37;2.30;;;;;;;;;;4955637;29;20539;-65
2021/04/05 11:48:11;;;;;;;4.87;2.10;;;;;;;;;;4962829;28;20455;-65
2021/04/05 11:50:43;;;;;;;4.87;2.23;;;;;;;;;;4975440;28;20438;-65
2021/04/05 11:53:10;;;;;;;2.10;1.30;;;;;;;;;;4975395;28;20431;-65
2021/04/05 11:55:41;;;;;;;4.80;2.33;;;;;;;;;;4975157;28;20530;-65
2021/04/05 11:58:11;;;;;;;3.43;1.97;;;;;;;;;;4975214;28;20478;-65
2021/04/05 12:00:39;;;;;;;3.33;1.80;;;;;;;;;;4975257;28;20451;-65
2021/04/05 12:03:15;;;;;;;5.60;1.80;;;;;;;;;;4966953;28;20553;-65
2021/04/05 12:05:43;;;;;;;3.70;1.93;;;;;;;;;;4956353;28;20480;-65
2021/04/05 12:08:11;;;;;;;4.30;2.13;;;;;;;;;;4966350;28;20455;-65
2021/04/05 12:10:39;;;;;;;3.93;2.13;;;;;;;;;;4955477;29;20463;-65
2021/04/05 12:13:09;;;;;;;6.17;2.90;;;;;;;;;;4967451;28;20886;-65
2021/04/05 12:15:37;;;;;;;4.80;1.97;;;;;;;;;;4975057;28;20450;-64
2021/04/05 12:18:04;;;;;;;3.83;2.53;;;;;;;;;;4965076;28;20492;-65
2021/04/05 12:20:32;;;;;;;6.10;2.53;;;;;;;;;;4955593;29;20531;-65
2021/04/05 12:22:59;;;;;;;5.43;2.70;;;;;;;;;;4955487;29;20944;-65
2021/04/05 12:25:31;;;;;;;4.60;2.63;;;;;;;;;;4981298;28;20953;-65
2021/04/05 12:28:01;;;;;;;3.40;1.90;;;;;;;;;;4994487;28;20530;-65
2021/04/05 12:30:29;;;;;;;3.90;2.27;;;;;;;;;;4971854;28;20463;-65
2021/04/05 12:32:57;;;;;;;3.90;2.03;;;;;;;;;;4962527;28;20466;-65
2021/04/05 12:35:24;;;;;;;5.10;2.20;;;;;;;;;;4960144;28;20539;-64
2021/04/05 12:37:54;;;;;;;1.53;1.10;;;;;;;;;;4957860;28;20534;-66
2021/04/05 12:40:23;;;;;;;3.17;1.40;;;;;;;;;;4961499;28;20468;-70
2021/04/05 12:42:50;;;;;;;6.63;2.23;;;;;;;;;;4973425;28;20863;-65
2021/04/05 12:45:16;;;;;;;6.23;2.30;;;;;;;;;;4968928;28;20471;-64
2021/04/05 12:47:44;;;;;;;4.87;2.30;;;;;;;;;;4963111;28;20487;-65
2021/04/05 12:50:13;;;;;;;3.27;1.90;;;;;;;;;;4967543;28;21020;-65
2021/04/05 12:52:41;;;;;;;2.83;1.90;;;;;;;;;;4973624;28;20475;-64
2021/04/05 12:55:09;;;;;;;4.70;2.27;;;;;;;;;;4968199;28;20551;-66
2021/04/05 12:57:36;;;;;;;3.77;2.20;;;;;;;;;;4957187;28;20496;-65
2021/04/05 13:00:05;;;;;;;4.23;2.43;;;;;;;;;;4966722;28;20487;-65
2021/04/05 13:02:34;;;;;;;3.80;2.33;;;;;;;;;;4957775;28;20543;-65
2021/04/05 13:05:03;;;;;;;2.50;2.30;;;;;;;;;;4960922;28;20468;-65
2021/04/05 13:07:33;;;;;;;4.37;2.83;;;;;;;;;;4955411;28;20537;-65
2021/04/05 13:10:01;;;;;;;5.43;3.03;;;;;;;;;;4969430;28;20554;-65
2021/04/05 13:12:30;;;;;;;4.20;2.40;;;;;;;;;;4973332;28;20540;-68
2021/04/05 13:15:00;;;;;;;4.73;2.40;;;;;;;;;;4961535;28;20571;-67
2021/04/05 13:17:29;;;;;;;3.07;2.50;;;;;;;;;;4954012;28;20566;-67
2021/04/05 13:19:56;;;;;;;2.80;2.40;;;;;;;;;;4960931;28;20507;-65
2021/04/05 13:22:25;;;;;;;2.80;2.53;;;;;;;;;;4954576;29;20556;-67
2021/04/05 13:24:54;;;;;;;3.07;2.73;;;;;;;;;;4968256;28;20502;-67
2021/04/05 13:27:24;;;;;;;3.17;2.63;;;;;;;;;;4973308;28;20458;-67
2021/04/05 13:29:52;;;;;;;2.67;2.47;;;;;;;;;;4960999;28;20579;-67
2021/04/05 13:32:19;;;;;;;5.23;2.70;;;;;;;;;;4972052;28;20466;-65
2021/04/05 13:34:46;;;;;;;2.70;2.50;;;;;;;;;;4966158;28;21035;-64
2021/04/05 13:37:14;;;;;;;4.67;3.10;;;;;;;;;;4963139;28;20498;-67
2021/04/05 13:39:43;;;;;;;3.47;2.20;;;;;;;;;;4970618;28;20999;-67
2021/04/05 13:42:13;;;;;;;4.20;2.73;;;;;;;;;;4972454;28;20466;-67
2021/04/05 13:44:41;;;;;;;4.30;2.20;;;;;;;;;;4970052;28;20467;-67
2021/04/05 13:47:09;;;;;;;4.70;2.43;;;;;;;;;;4953714;28;20488;-66
2021/04/05 13:49:38;;;;;;;4.53;2.10;;;;;;;;;;4969559;28;20487;-65
2021/04/05 13:52:06;;;;;;;3.87;2.57;;;;;;;;;;4958848;28;20452;-65
2021/04/05 13:54:34;;;;;;;5.47;2.87;;;;;;;;;;4958353;28;20575;-67
2021/04/05 13:57:02;;;;;;;4.97;2.23;;;;;;;;;;4968360;28;20554;-67
2021/04/05 13:59:30;;;;;;;5.17;2.60;;;;;;;;;;4973201;28;20529;-67
2021/04/05 14:01:57;;;;;;;5.07;2.67;;;;;;;;;;4970388;28;20936;-67
2021/04/05 14:04:24;;;;;;;7.90;2.67;;;;;;;;;;4973016;28;20451;-68
2021/04/05 14:06:52;;;;;;;5.87;2.97;;;;;;;;;;4964129;28;20479;-67
2021/04/05 14:09:20;;;;;;;4.77;3.30;;;;;;;;;;4960059;28;20496;-67
2021/04/05 14:11:49;;;;;;;7.07;3.50;;;;;;;;;;4956045;28;20488;-66
2021/04/05 14:14:19;;;;;;;6.43;2.87;;;;;;;;;;4960750;28;20471;-68
2021/04/05 14:16:49;;;;;;;6.83;3.47;;;;;;;;;;4970117;28;20547;-67
2021/04/05 14:19:25;;;;;;;5.20;3.03;;;;;;;;;;4965492;28;20502;-67
2021/04/05 14:21:56;;;;;;;4.03;2.57;;;;;;;;;;4964305;28;20535;-67
2021/04/05 14:24:24;;;;;;;7.87;3.70;;;;;;;;;;4955747;28;20537;-67
2021/04/05 14:26:52;;;;;;;6.70;3.20;;;;;;;;;;4953214;28;20476;-66
2021/04/05 14:29:22;;;;;;;9.10;3.80;;;;;;;;;;4971258;28;20476;-67
2021/04/05 14:31:50;;;;;;;10.93;3.97;;;;;;;;;;4957349;28;20451;-67
2021/04/05 14:34:19;;;;;;;8.13;3.30;;;;;;;;;;4962664;28;20554;-67
2021/04/05 14:36:50;;;;;;;8.67;3.60;;;;;;;;;;4960942;28;20572;-67
2021/04/05 14:39:23;;;;;;;6.70;3.60;;;;;;;;;;4953340;29;20503;-67
2021/04/05 14:41:53;;;;;;;8.70;3.17;;;;;;;;;;4964705;28;20489;-67
2021/04/05 14:44:20;;;;;;;7.87;3.83;;;;;;;;;;4972846;28;20543;-67
2021/04/05 14:46:47;;;;;;;7.57;3.57;;;;;;;;;;4970746;28;20458;-67
2021/04/05 14:49:22;;;;;;;5.87;3.00;;;;;;;;;;4970028;28;20480;-67